Time;durP1;ratioP1;P1;durP2;ratioP2;P2;SDS_P1;SDS_P2;PMS_P1;PMS_P2;Temp;Humidity;BMP_temperature;BMP_pressure;BME280_temperature;BME280_humidity;BME280_pressure;Samples;Min_cycle;Max_cycle;Signal;HPM_P1;HPM_P2
2024/03/24 00:00:17;;;;;;;1999.90;999.90;;;;;;;4.58;100.00;100381.56;10485573;28;20052;-72
2024/03/24 00:05:19;;;;;;;1999.90;999.90;;;;;;;4.63;100.00;100371.00;10484160;28;20501;-73
2024/03/24 00:10:20;;;;;;;1999.90;999.90;;;;;;;4.61;100.00;100365.88;10484708;28;20505;-72
2024/03/24 00:15:21;;;;;;;1999.90;999.90;;;;;;;4.65;100.00;100357.06;10501208;28;20075;-72
2024/03/24 00:20:23;;;;;;;1999.90;999.90;;;;;;;4.73;100.00;100354.19;10484649;28;20041;-72
2024/03/24 00:25:24;;;;;;;1999.90;999.90;;;;;;;4.86;100.00;100343.28;10500878;28;20056;-72
2024/03/24 00:30:26;;;;;;;1999.90;999.90;;;;;;;4.89;100.00;100346.59;10500309;28;20505;-72
2024/03/24 00:35:27;;;;;;;1999.90;999.90;;;;;;;4.84;100.00;100336.44;10483212;28;20455;-73
2024/03/24 00:40:29;;;;;;;1999.90;999.90;;;;;;;4.79;100.00;100332.31;10500538;28;20102;-72
2024/03/24 00:45:30;;;;;;;1999.90;999.90;;;;;;;4.91;100.00;100334.44;10499798;28;20441;-72
2024/03/24 00:50:32;;;;;;;1999.90;999.90;;;;;;;4.82;100.00;100340.84;10483106;28;20075;-72
2024/03/24 00:55:33;;;;;;;1999.90;999.90;;;;;;;4.97;100.00;100339.34;10500584;28;20102;-71
2024/03/24 01:00:35;;;;;;;1999.90;999.90;;;;;;;4.69;100.00;100339.66;10498709;28;20505;-72
2024/03/24 01:05:36;;;;;;;1999.90;999.90;;;;;;;4.89;100.00;100335.41;10499029;28;20052;-71
2024/03/24 01:10:38;;;;;;;1999.90;999.90;;;;;;;4.55;100.00;100319.44;10499291;28;20044;-72
2024/03/24 01:15:46;;;;;;;1999.90;999.90;;;;;;;4.83;100.00;100306.22;10482238;28;20615;-72
2024/03/24 01:20:48;;;;;;;1999.90;999.90;;;;;;;4.65;100.00;100289.66;10498543;28;20048;-71
2024/03/24 01:25:49;;;;;;;1999.90;999.90;;;;;;;4.53;100.00;100284.13;10498549;28;20055;-72
2024/03/24 01:30:50;;;;;;;1999.90;999.90;;;;;;;4.65;100.00;100275.84;10481469;28;20044;-71
2024/03/24 01:35:52;;;;;;;1999.90;999.90;;;;;;;4.68;100.00;100260.16;10498756;28;20060;-72
2024/03/24 01:40:53;;;;;;;1999.90;999.90;;;;;;;4.97;100.00;100261.53;10497483;28;20386;-73
2024/03/24 01:45:55;;;;;;;1999.90;999.90;;;;;;;4.87;100.00;100246.44;10497664;28;20049;-72
2024/03/24 01:50:57;;;;;;;1999.90;999.90;;;;;;;4.81;100.00;100245.78;10497777;28;20045;-72
2024/03/24 01:55:58;;;;;;;1999.90;999.90;;;;;;;4.83;100.00;100233.59;10480965;28;20052;-71
2024/03/24 02:00:59;;;;;;;1999.90;999.90;;;;;;;4.92;100.00;100234.09;10497299;28;20098;-71
2024/03/24 02:06:01;;;;;;;1999.90;999.90;;;;;;;4.69;100.00;100254.09;10496869;28;20406;-71
2024/03/24 02:11:02;;;;;;;1999.90;999.90;;;;;;;4.78;100.00;100230.34;10463216;28;20459;-72
2024/03/24 02:16:04;;;;;;;1999.90;999.90;;;;;;;4.95;100.00;100210.63;10480627;28;20311;-72
2024/03/24 02:21:06;;;;;;;1999.90;999.90;;;;;;;4.89;100.00;100203.94;10479990;28;20048;-71
2024/03/24 02:26:07;;;;;;;1999.90;999.90;;;;;;;4.83;100.00;100193.84;10490810;22;20409;-69
2024/03/24 02:31:09;;;;;;;1999.90;999.90;;;;;;;4.87;100.00;100186.75;10455069;28;20045;-69
2024/03/24 02:36:10;;;;;;;1999.90;999.90;;;;;;;4.97;100.00;100186.28;10438508;28;20053;-69
2024/03/24 02:41:12;;;;;;;1999.90;999.90;;;;;;;4.96;100.00;100171.66;10455442;28;20048;-70
2024/03/24 02:46:13;;;;;;;1999.90;999.90;;;;;;;5.00;100.00;100173.19;10438494;28;20053;-69
2024/03/24 02:51:14;;;;;;;1999.90;999.90;;;;;;;5.13;100.00;100176.09;10454207;28;20041;-70
2024/03/24 02:56:16;;;;;;;1999.90;999.90;;;;;;;5.27;100.00;100166.84;10455079;28;20056;-70
2024/03/24 03:01:17;;;;;;;1999.90;999.90;;;;;;;5.11;100.00;100169.25;10437937;28;20056;-70
2024/03/24 03:06:18;;;;;;;1999.90;999.90;;;;;;;5.00;100.00;100175.78;10454292;28;20083;-69
2024/03/24 03:11:20;;;;;;;1999.90;999.90;;;;;;;4.94;100.00;100157.91;10453584;28;20044;-69
2024/03/24 03:16:21;;;;;;;1999.90;999.90;;;;;;;4.94;100.00;100152.72;10438345;28;20053;-68
2024/03/24 03:21:25;;;;;;;1999.90;999.90;;;;;;;5.03;100.00;100157.47;10437030;28;20481;-69
2024/03/24 03:26:26;;;;;;;1999.90;999.90;;;;;;;5.22;100.00;100159.25;10456933;28;20505;-69
2024/03/24 03:31:27;;;;;;;1999.90;999.90;;;;;;;5.14;100.00;100141.41;10444493;28;20576;-68
2024/03/24 03:36:29;;;;;;;1999.90;999.90;;;;;;;4.99;100.00;100142.97;10460989;28;20052;-69
2024/03/24 03:41:31;;;;;;;1999.90;999.90;;;;;;;4.96;100.00;100137.06;10444732;28;20048;-68
2024/03/24 03:46:32;;;;;;;1999.90;999.90;;;;;;;5.26;100.00;100134.00;10460660;28;20049;-69
2024/03/24 03:51:37;;;;;;;1999.90;999.90;;;;;;;5.37;100.00;100111.00;10460632;28;20106;-69
2024/03/24 03:56:38;;;;;;;1999.90;999.90;;;;;;;5.19;100.00;100107.47;10444708;28;20053;-69
2024/03/24 04:01:40;;;;;;;1999.90;999.90;;;;;;;5.30;100.00;100117.38;10443209;28;20045;-69
2024/03/24 04:06:42;;;;;;;1999.90;999.90;;;;;;;5.31;100.00;100113.84;10460528;28;20056;-69
2024/03/24 04:11:44;;;;;;;1999.90;999.90;;;;;;;5.27;100.00;100117.53;10443270;28;20053;-69
2024/03/24 04:16:45;;;;;;;1999.90;999.90;;;;;;;5.25;100.00;100109.81;10427294;28;20064;-69
2024/03/24 04:21:47;;;;;;;1999.90;999.90;;;;;;;5.48;100.00;100095.75;10442580;28;20456;-69
2024/03/24 04:26:49;;;;;;;1999.90;999.90;;;;;;;5.38;100.00;100092.75;10460069;28;20063;-68
2024/03/24 04:31:50;;;;;;;1999.90;999.90;;;;;;;4.97;100.00;100164.69;10442656;28;20052;-68
2024/03/24 04:36:52;;;;;;;1999.90;999.90;;;;;;;4.50;100.00;100163.25;10459505;28;20063;-68
2024/03/24 04:41:53;;;;;;;1999.90;999.90;;;;;;;4.75;100.00;100162.19;10442793;28;20045;-69
2024/03/24 04:46:55;;;;;;;1999.90;999.90;;;;;;;4.64;100.00;100137.59;10442480;28;20099;-68
2024/03/24 04:51:57;;;;;;;1999.90;999.90;;;;;;;4.65;100.00;100135.81;10457929;28;20049;-68
2024/03/24 04:56:58;;;;;;;1999.90;999.90;;;;;;;4.63;100.00;100151.44;10442712;28;20071;-68
2024/03/24 05:01:59;;;;;;;1999.90;999.90;;;;;;;4.53;100.00;100149.31;10458874;28;20110;-68
2024/03/24 05:07:01;;;;;;;1999.90;999.90;;;;;;;4.55;100.00;100150.09;10457676;28;20413;-68
2024/03/24 05:12:02;;;;;;;1999.90;999.90;;;;;;;4.41;100.00;100154.13;10440539;28;20090;-68
2024/03/24 05:17:04;;;;;;;1999.90;999.90;;;;;;;4.42;100.00;100154.94;10457904;28;20049;-69
2024/03/24 05:22:05;;;;;;;1999.90;999.90;;;;;;;4.29;100.00;100159.81;10440519;28;20053;-68
2024/03/24 05:27:07;;;;;;;1999.90;999.90;;;;;;;4.49;100.00;100152.94;10456902;28;20053;-68
2024/03/24 05:32:08;;;;;;;1999.90;999.90;;;;;;;4.41;100.00;100156.72;10440391;28;20056;-68
2024/03/24 05:37:09;;;;;;;1999.90;999.90;;;;;;;4.25;100.00;100153.94;10456589;28;20056;-68
2024/03/24 05:42:11;;;;;;;1999.90;999.90;;;;;;;4.40;100.00;100160.19;10439264;28;20063;-68
2024/03/24 05:47:13;;;;;;;1999.90;999.90;;;;;;;4.34;100.00;100172.56;10456308;28;20079;-69
2024/03/24 05:52:14;;;;;;;1999.90;999.90;;;;;;;4.34;100.00;100173.44;10455481;28;20064;-69
2024/03/24 05:57:15;;;;;;;1999.90;999.90;;;;;;;4.42;100.00;100184.31;10456017;28;20472;-68
2024/03/24 06:02:17;;;;;;;1999.90;999.90;;;;;;;4.46;100.00;100187.63;10455858;28;20513;-68
2024/03/24 06:07:18;;;;;;;1999.90;999.90;;;;;;;4.71;100.00;100184.84;10455851;28;20474;-69
2024/03/24 06:12:21;;;;;;;1999.90;999.90;;;;;;;4.76;100.00;100174.28;10439060;28;20053;-69
2024/03/24 06:17:23;;;;;;;1999.90;999.90;;;;;;;4.84;100.00;100193.78;10439032;28;20075;-69
2024/03/24 06:22:24;;;;;;;1999.90;999.90;;;;;;;4.86;100.00;100205.81;10455061;28;20053;-69
2024/03/24 06:27:26;;;;;;;1999.90;999.90;;;;;;;4.74;100.00;100231.41;10438410;28;20052;-69
2024/03/24 06:32:27;;;;;;;1999.90;999.90;;;;;;;4.32;100.00;100249.53;10454704;28;20075;-69
2024/03/24 06:37:29;;;;;;;1999.90;999.90;;;;;;;4.34;100.00;100255.50;10438078;28;20061;-69
2024/03/24 06:42:30;;;;;;;1999.90;999.90;;;;;;;4.41;100.00;100229.28;10438338;28;20505;-68
2024/03/24 06:47:31;;;;;;;1999.90;999.90;;;;;;;4.43;100.00;100222.28;10437533;28;20053;-68
2024/03/24 06:52:33;;;;;;;1999.90;999.90;;;;;;;4.31;100.00;100216.78;10454021;28;20052;-68
2024/03/24 06:57:35;;;;;;;1999.90;999.90;;;;;;;4.35;100.00;100205.38;10454753;28;20057;-68
2024/03/24 07:02:37;;;;;;;1999.90;999.90;;;;;;;4.39;100.00;100209.53;10460898;28;20102;-68
2024/03/24 07:07:38;;;;;;;1999.90;999.90;;;;;;;4.39;100.00;100192.22;10463014;28;20057;-68
2024/03/24 07:12:40;;;;;;;1999.90;999.90;;;;;;;4.92;100.00;100192.59;10445524;28;20049;-68
2024/03/24 07:17:41;;;;;;;1999.90;999.90;;;;;;;4.93;100.00;100200.31;10445976;28;20174;-68
2024/03/24 07:22:43;;;;;;;1999.90;999.90;;;;;;;5.20;100.00;100200.84;10445639;28;20053;-68
2024/03/24 07:27:44;;;;;;;1999.90;999.90;;;;;;;5.30;100.00;100197.84;10462033;28;20060;-68
2024/03/24 07:32:45;;;;;;;1999.90;999.90;;;;;;;5.75;100.00;100199.25;10445057;28;20044;-68
2024/03/24 07:37:47;;;;;;;1999.90;999.90;;;;;;;5.70;100.00;100196.88;10461804;28;20053;-68
2024/03/24 07:42:48;;;;;;;1999.90;999.90;;;;;;;5.84;100.00;100209.19;10462135;28;20052;-68
2024/03/24 07:47:50;;;;;;;1999.90;999.90;;;;;;;6.47;100.00;100211.41;10461443;28;20125;-69
2024/03/24 07:52:51;;;;;;;1999.90;999.90;;;;;;;6.92;100.00;100210.91;10444154;28;20049;-69
2024/03/24 07:57:52;;;;;;;1999.90;999.90;;;;;;;6.40;100.00;100220.41;10461491;28;20060;-69
2024/03/24 08:02:54;;;;;;;1999.90;999.90;;;;;;;6.38;100.00;100221.41;10460310;28;20045;-69
2024/03/24 08:07:55;;;;;;;1999.90;999.90;;;;;;;6.45;100.00;100228.81;10460976;28;20064;-68
2024/03/24 08:12:56;;;;;;;1999.90;999.90;;;;;;;6.47;100.00;100227.00;10442801;28;20432;-69
2024/03/24 08:17:58;;;;;;;1999.90;999.90;;;;;;;6.36;100.00;100218.88;10426608;28;20053;-69
2024/03/24 08:22:59;;;;;;;1999.90;999.90;;;;;;;7.06;100.00;100222.28;10442668;28;20055;-69
2024/03/24 08:28:00;;;;;;;1999.90;999.90;;;;;;;7.89;100.00;100209.19;10442438;28;20513;-68
2024/03/24 08:33:02;;;;;;;1999.90;999.90;;;;;;;8.05;100.00;100210.91;10459525;28;20114;-69
2024/03/24 08:38:03;;;;;;;1999.90;999.90;;;;;;;8.44;100.00;100212.22;10442876;28;20075;-69
2024/03/24 08:43:05;;;;;;;1999.90;999.90;;;;;;;8.24;100.00;100214.19;10459742;28;20099;-70
2024/03/24 08:48:06;;;;;;;1999.90;999.90;;;;;;;8.14;100.00;100218.25;10440333;28;20053;-69
2024/03/24 08:53:08;;;;;;;1999.90;999.90;;;;;;;7.37;100.00;100197.22;10454324;28;20049;-68
2024/03/24 08:58:09;;;;;;;1999.90;999.90;;;;;;;7.26;100.00;100194.34;10425494;28;20048;-69
2024/03/24 09:03:11;;;;;;;1999.90;999.90;;;;;;;7.34;100.00;100205.19;10418689;28;20429;-69
2024/03/24 09:08:12;;;;;;;1999.90;999.90;;;;;;;7.44;100.00;100208.16;10440860;28;20076;-69
2024/03/24 09:13:14;;;;;;;1999.90;999.90;;;;;;;7.27;98.92;100214.28;10421095;28;20045;-68
2024/03/24 09:18:16;;;;;;;1999.90;999.90;;;;;;;7.82;100.00;100200.03;10427987;28;20055;-69
2024/03/24 09:23:17;;;;;;;1999.90;999.90;;;;;;;7.67;100.00;100195.66;10439092;28;20120;-69
2024/03/24 09:28:19;;;;;;;1999.90;999.90;;;;;;;7.37;100.00;100212.03;10425237;28;20060;-69
2024/03/24 09:33:20;;;;;;;1999.90;999.90;;;;;;;7.30;100.00;100228.91;10416380;28;20053;-70
2024/03/24 09:38:24;;;;;;;1999.90;999.90;;;;;;;7.51;100.00;100203.47;10422966;28;20434;-70
2024/03/24 09:43:25;;;;;;;1999.90;999.90;;;;;;;7.82;98.66;100206.06;10424505;28;20064;-70
2024/03/24 09:48:28;;;;;;;1999.90;999.90;;;;;;;7.63;96.96;100219.28;10440251;28;20064;-71
2024/03/24 09:53:31;;;;;;;1999.90;999.90;;;;;;;7.81;98.27;100209.59;10437311;28;20481;-71
2024/03/24 09:58:33;;;;;;;1999.90;999.90;;;;;;;7.63;97.18;100231.44;10424590;28;20060;-71
2024/03/24 10:03:34;;;;;;;1999.90;999.90;;;;;;;6.58;97.82;100247.25;10436958;28;20509;-71
2024/03/24 10:08:35;;;;;;;1999.90;999.90;;;;;;;6.11;100.00;100292.84;10439545;28;20059;-72
2024/03/24 10:13:43;;;;;;;1999.90;999.90;;;;;;;5.82;100.00;100295.94;10439569;28;20053;-72
2024/03/24 10:18:45;;;;;;;1999.90;999.90;;;;;;;5.56;100.00;100291.00;10437084;28;20067;-71
2024/03/24 10:23:47;;;;;;;1999.90;999.90;;;;;;;6.34;100.00;100285.72;10436795;28;20068;-71
2024/03/24 10:28:50;;;;;;;1999.90;999.90;;;;;;;6.44;100.00;100288.69;10438614;28;20045;-69
2024/03/24 10:33:52;;;;;;;1999.90;999.90;;;;;;;6.59;100.00;100276.72;10438572;28;20057;-69
2024/03/24 10:38:53;;;;;;;1999.90;999.90;;;;;;;6.88;100.00;100275.28;10453139;28;20492;-70
2024/03/24 10:43:55;;;;;;;1999.90;999.90;;;;;;;7.56;100.00;100280.44;10437613;28;20057;-69
2024/03/24 10:48:59;;;;;;;1999.90;999.90;;;;;;;7.34;100.00;100285.94;10445516;28;20049;-70
2024/03/24 10:54:03;;;;;;;1999.90;999.90;;;;;;;8.38;100.00;100262.94;10404860;28;20107;-69
2024/03/24 10:59:04;;;;;;;1999.90;999.90;;;;;;;7.96;100.00;100257.44;10413527;28;20045;-69
2024/03/24 11:04:08;;;;;;;1999.90;999.90;;;;;;;8.24;100.00;100265.47;10397336;28;20103;-69
2024/03/24 11:09:12;;;;;;;1999.90;999.90;;;;;;;9.80;100.00;100271.09;10413801;28;20041;-69
2024/03/24 11:14:14;;;;;;;1999.90;999.90;;;;;;;8.87;100.00;100262.75;10412354;28;20441;-69
2024/03/24 11:19:15;;;;;;;1999.90;999.90;;;;;;;9.09;100.00;100254.50;10396585;28;20057;-69
2024/03/24 11:24:28;;;;;;;1999.90;999.90;;;;;;;8.65;100.00;100244.88;10412845;28;20057;-75
2024/03/24 11:29:49;;;;;;;1999.90;999.90;;;;;;;7.99;100.00;100254.66;10396244;28;20053;-72
2024/03/24 11:34:53;;;;;;;1999.90;999.90;;;;;;;8.17;100.00;100244.97;10412800;28;20057;-66
2024/03/24 11:39:55;;;;;;;1999.90;999.90;;;;;;;8.51;100.00;100256.13;10380513;28;20300;-67
2024/03/24 11:45:17;;;;;;;1999.90;999.90;;;;;;;8.25;100.00;100265.41;10396384;28;20061;-67
2024/03/24 11:50:18;;;;;;;1999.90;999.90;;;;;;;10.23;100.00;100250.03;10420304;28;20111;-66
2024/03/24 11:55:20;;;;;;;1999.90;999.90;;;;;;;8.26;98.45;100241.00;10420018;28;20061;-67
2024/03/24 12:00:23;;;;;;;1999.90;999.90;;;;;;;9.57;100.00;100245.53;10403189;28;20053;-66
2024/03/24 12:05:24;;;;;;;1999.90;999.90;;;;;;;9.20;93.39;100248.63;10419420;28;20058;-67
2024/03/24 12:10:26;;;;;;;1999.90;999.90;;;;;;;9.26;95.51;100247.41;10418625;28;20056;-67
2024/03/24 12:15:27;;;;;;;1999.90;999.90;;;;;;;8.69;97.85;100258.59;10418557;28;20392;-67
2024/03/24 12:20:28;;;;;;;1999.90;999.90;;;;;;;7.53;100.00;100267.59;10418462;28;20050;-66
2024/03/24 12:25:30;;;;;;;1999.90;999.90;;;;;;;7.52;100.00;100272.88;10418595;28;20498;-66
2024/03/24 12:30:31;;;;;;;1999.90;999.90;;;;;;;7.36;100.00;100280.66;10417985;28;20414;-66
2024/03/24 12:35:33;;;;;;;1999.90;999.90;;;;;;;7.77;100.00;100267.19;10417796;28;20058;-66
2024/03/24 12:40:34;;;;;;;1999.90;999.90;;;;;;;8.95;100.00;100267.53;10418173;28;20088;-67
2024/03/24 12:45:36;;;;;;;1999.90;999.90;;;;;;;11.01;100.00;100268.56;10400479;28;20560;-66
2024/03/24 12:50:37;;;;;;;1999.90;999.90;;;;;;;11.41;93.74;100258.81;10400746;28;20053;-67
2024/03/24 12:55:39;;;;;;;1999.90;999.90;;;;;;;10.49;89.81;100262.38;10417438;28;20061;-66
2024/03/24 13:00:41;;;;;;;1999.90;999.90;;;;;;;10.30;92.57;100252.25;10415922;28;20088;-67
2024/03/24 13:05:43;;;;;;;1999.90;999.90;;;;;;;9.87;93.18;100255.84;10400692;28;20053;-66
2024/03/24 13:10:44;;;;;;;1999.90;999.90;;;;;;;10.15;92.17;100244.44;10400191;28;20054;-67
2024/03/24 13:15:45;;;;;;;1999.90;999.90;;;;;;;8.92;93.83;100252.03;10417364;28;20053;-67
2024/03/24 13:20:50;;;;;;;1999.90;999.90;;;;;;;9.62;95.45;100265.22;10416591;28;20494;-67
2024/03/24 13:25:56;;;;;;;1999.90;999.90;;;;;;;8.32;100.00;100269.38;10415630;28;20076;-66
2024/03/24 13:30:57;;;;;;;1999.90;999.90;;;;;;;7.80;100.00;100274.81;10399670;28;20057;-66
2024/03/24 13:35:59;;;;;;;1999.90;999.90;;;;;;;10.77;98.98;100290.22;10416046;28;20060;-67
2024/03/24 13:41:17;;;;;;;1999.90;999.90;;;;;;;9.78;99.17;100279.94;10416026;28;20045;-67
2024/03/24 13:46:23;;;;;;;1999.90;999.90;;;;;;;9.60;96.57;100276.69;10399566;28;20057;-67
2024/03/24 13:51:26;;;;;;;1999.90;999.90;;;;;;;9.10;95.51;100269.22;10399087;28;20056;-69
2024/03/24 13:56:27;;;;;;;1999.90;999.90;;;;;;;9.40;100.00;100283.16;10398662;28;20068;-66
2024/03/24 14:01:29;;;;;;;1999.90;999.90;;;;;;;8.25;100.00;100303.69;10415151;28;20099;-66
2024/03/24 14:06:31;;;;;;;1999.90;999.90;;;;;;;9.35;100.00;100300.91;10398917;28;20049;-66
2024/03/24 14:11:32;;;;;;;1999.90;999.90;;;;;;;8.39;100.00;100314.22;10414402;28;20053;-67
2024/03/24 14:16:57;;;;;;;1999.90;999.90;;;;;;;7.92;100.00;100315.06;10398262;28;20049;-66
2024/03/24 14:22:06;;;;;;;1999.90;999.90;;;;;;;7.44;100.00;100321.00;10413541;28;20487;-66
2024/03/24 14:27:07;;;;;;;1999.90;999.90;;;;;;;7.71;100.00;100343.09;10397307;28;20486;-66
2024/03/24 14:32:09;;;;;;;1999.90;999.90;;;;;;;7.62;100.00;100334.81;10413621;28;20501;-66
2024/03/24 14:37:21;;;;;;;1999.90;999.90;;;;;;;7.96;100.00;100340.84;10428393;22;20386;-66
2024/03/24 14:42:40;;;;;;;1999.90;999.90;;;;;;;8.58;100.00;100323.63;10463169;28;20056;-66
2024/03/24 14:47:59;;;;;;;1999.90;999.90;;;;;;;7.64;100.00;100329.53;10478497;28;20048;-66
2024/03/24 14:53:01;;;;;;;1999.90;999.90;;;;;;;7.93;100.00;100314.94;10479184;28;20054;-66
2024/03/24 14:58:02;;;;;;;1999.90;999.90;;;;;;;7.73;100.00;100326.47;10479806;28;20098;-66
2024/03/24 15:03:04;;;;;;;1999.90;999.90;;;;;;;7.75;100.00;100350.66;10495635;28;20390;-66
2024/03/24 15:08:07;;;;;;;1999.90;999.90;;;;;;;7.47;100.00;100340.84;10462669;28;20053;-66
2024/03/24 15:13:08;;;;;;;1999.90;999.90;;;;;;;7.49;100.00;100352.03;10478184;28;20402;-66
2024/03/24 15:18:10;;;;;;;1999.90;999.90;;;;;;;7.02;100.00;100355.25;10478988;28;20049;-66
2024/03/24 15:23:11;;;;;;;1999.90;999.90;;;;;;;7.25;100.00;100349.75;10483408;28;20485;-65
2024/03/24 15:28:12;;;;;;;1999.90;999.90;;;;;;;7.01;100.00;100348.38;10486921;28;20067;-66
2024/03/24 15:33:14;;;;;;;1999.90;999.90;;;;;;;7.21;100.00;100360.38;10485836;28;20044;-66
2024/03/24 15:38:15;;;;;;;1999.90;999.90;;;;;;;7.09;100.00;100361.00;10502773;28;20057;-64
2024/03/24 15:43:21;;;;;;;1999.90;999.90;;;;;;;7.41;100.00;100344.63;10486343;28;20098;-66
2024/03/24 15:48:23;;;;;;;1999.90;999.90;;;;;;;7.09;100.00;100348.00;10485950;28;20052;-66
2024/03/24 15:53:24;;;;;;;1999.90;999.90;;;;;;;7.06;100.00;100352.44;10485262;28;20053;-65
2024/03/24 15:58:50;;;;;;;1999.90;999.90;;;;;;;7.34;100.00;100378.84;10485825;28;20067;-66
2024/03/24 16:03:51;;;;;;;1999.90;999.90;;;;;;;7.03;100.00;100360.41;10484763;28;20482;-66
2024/03/24 16:08:53;;;;;;;1999.90;999.90;;;;;;;7.16;100.00;100370.19;10501630;28;20060;-66
2024/03/24 16:14:02;;;;;;;1999.90;999.90;;;;;;;7.05;100.00;100383.75;10485263;28;20080;-66
2024/03/24 16:19:03;;;;;;;1999.90;999.90;;;;;;;7.07;100.00;100395.75;10484971;28;20048;-66
2024/03/24 16:24:05;;;;;;;1999.90;999.90;;;;;;;6.95;100.00;100388.56;10484852;28;20044;-66
2024/03/24 16:29:06;;;;;;;1999.90;999.90;;;;;;;6.71;100.00;100393.19;10483892;28;20049;-66
2024/03/24 16:34:09;;;;;;;1999.90;999.90;;;;;;;6.92;100.00;100388.72;10500165;28;20546;-66
2024/03/24 16:39:10;;;;;;;1999.90;999.90;;;;;;;6.74;100.00;100387.84;10467049;28;20410;-66
2024/03/24 16:44:12;;;;;;;1999.90;999.90;;;;;;;6.87;100.00;100383.72;10484495;28;20114;-66
2024/03/24 16:49:13;;;;;;;1999.90;999.90;;;;;;;7.09;100.00;100400.88;10500382;28;20044;-66
2024/03/24 16:54:14;;;;;;;1999.90;999.90;;;;;;;6.86;100.00;100402.88;10466927;28;20056;-66
2024/03/24 16:59:16;;;;;;;1999.90;999.90;;;;;;;6.83;100.00;100405.63;10483422;28;20048;-68
2024/03/24 17:04:22;;;;;;;1999.90;999.90;;;;;;;6.81;100.00;100402.25;10482417;28;20057;-69
2024/03/24 17:09:23;;;;;;;1999.90;999.90;;;;;;;6.87;100.00;100416.72;10483038;28;20059;-69
2024/03/24 17:14:25;;;;;;;1999.90;999.90;;;;;;;6.80;100.00;100423.13;10498640;28;20052;-69
2024/03/24 17:19:26;;;;;;;1999.90;999.90;;;;;;;6.84;100.00;100419.47;10498954;28;20507;-69
2024/03/24 17:24:28;;;;;;;1999.90;999.90;;;;;;;6.90;100.00;100444.38;10499256;28;20063;-69
2024/03/24 17:29:29;;;;;;;1999.90;999.90;;;;;;;6.90;100.00;100442.59;10498621;28;20048;-69
2024/03/24 17:34:30;;;;;;;1999.90;999.90;;;;;;;6.64;100.00;100452.47;10482261;28;20098;-69
2024/03/24 17:39:32;;;;;;;1999.90;999.90;;;;;;;6.67;100.00;100464.50;10497372;28;20053;-69
2024/03/24 17:44:34;;;;;;;1999.90;999.90;;;;;;;6.85;100.00;100470.59;10497417;28;20063;-69
2024/03/24 17:49:35;;;;;;;1999.90;999.90;;;;;;;6.66;100.00;100474.06;10480630;28;20056;-69
2024/03/24 17:54:37;;;;;;;1999.90;999.90;;;;;;;6.74;100.00;100491.06;10497814;28;20045;-69
2024/03/24 17:59:38;;;;;;;1999.90;999.90;;;;;;;6.66;100.00;100494.88;10497685;28;20052;-69
2024/03/24 18:04:40;;;;;;;1999.90;999.90;;;;;;;6.37;100.00;100488.41;10480549;28;20059;-69
2024/03/24 18:15:01;;;;;;;1999.90;999.90;;;;;;;6.27;100.00;100516.56;10479771;28;20516;-69
2024/03/24 18:20:04;;;;;;;1999.90;999.90;;;;;;;6.26;100.00;100527.03;10496461;28;20055;-69
2024/03/24 18:25:05;;;;;;;1999.90;999.90;;;;;;;6.43;100.00;100553.13;10480583;28;20102;-69
2024/03/24 18:30:08;;;;;;;1999.90;999.90;;;;;;;5.85;100.00;100537.38;10479679;28;20404;-69
2024/03/24 18:35:09;;;;;;;1999.90;999.90;;;;;;;5.84;100.00;100540.91;10480312;28;20067;-69
2024/03/24 18:40:11;;;;;;;1999.90;999.90;;;;;;;5.95;100.00;100541.28;10496234;28;20061;-69
2024/03/24 18:45:14;;;;;;;1999.90;999.90;;;;;;;5.89;100.00;100539.81;10479491;28;20052;-69
2024/03/24 18:50:15;;;;;;;1999.90;999.90;;;;;;;5.86;100.00;100544.28;10479175;28;20055;-69
2024/03/24 18:55:17;;;;;;;1999.90;999.90;;;;;;;5.73;100.00;100551.75;10465258;28;20053;-68
2024/03/24 19:00:19;;;;;;;1999.90;999.90;;;;;;;5.64;100.00;100546.94;10504275;28;20052;-69
2024/03/24 19:05:20;;;;;;;1999.90;999.90;;;;;;;5.67;100.00;100552.00;10487666;28;20056;-69
2024/03/24 19:10:22;;;;;;;1999.90;999.90;;;;;;;5.73;100.00;100555.19;10487683;28;20061;-68
2024/03/24 19:15:24;;;;;;;1999.90;999.90;;;;;;;5.62;100.00;100561.75;10504297;28;20053;-68
2024/03/24 19:20:25;;;;;;;1999.90;999.90;;;;;;;5.86;100.00;100563.31;10487268;28;20078;-68
2024/03/24 19:25:27;;;;;;;1999.90;999.90;;;;;;;5.87;100.00;100570.22;10486965;28;20057;-68
2024/03/24 19:30:30;;;;;;;1999.90;999.90;;;;;;;5.67;100.00;100577.97;10486546;28;20048;-66
2024/03/24 19:35:31;;;;;;;1999.90;999.90;;;;;;;5.64;100.00;100578.94;10485645;28;20485;-66
2024/03/24 19:40:33;;;;;;;1999.90;999.90;;;;;;;5.55;100.00;100584.50;10502237;28;20052;-66
2024/03/24 19:45:34;;;;;;;1999.90;999.90;;;;;;;5.48;100.00;100589.09;10485551;28;20075;-66
2024/03/24 19:50:36;;;;;;;1999.90;999.90;;;;;;;5.56;100.00;100596.56;10469434;28;20060;-66
2024/03/24 19:55:38;;;;;;;1999.90;999.90;;;;;;;5.67;100.00;100591.81;10502175;28;20489;-66
2024/03/24 20:00:39;;;;;;;1999.90;999.90;;;;;;;5.65;100.00;100582.38;10485114;28;20410;-66
2024/03/24 20:05:41;;;;;;;1999.90;999.90;;;;;;;5.49;100.00;100595.13;10484969;28;20075;-66
2024/03/24 20:10:43;;;;;;;1999.90;999.90;;;;;;;5.51;100.00;100601.94;10484451;28;20053;-66
2024/03/24 20:15:44;;;;;;;1999.90;999.90;;;;;;;5.35;100.00;100596.53;10485039;28;20077;-66
2024/03/24 20:20:49;;;;;;;1999.90;999.90;;;;;;;5.36;100.00;100593.03;10502067;28;20055;-65
2024/03/24 20:25:50;;;;;;;1999.90;999.90;;;;;;;5.30;100.00;100595.84;10484899;28;20048;-66
2024/03/24 20:30:51;;;;;;;1999.90;999.90;;;;;;;5.27;100.00;100602.91;10500741;28;20049;-66
2024/03/24 20:35:55;;;;;;;1999.90;999.90;;;;;;;5.36;100.00;100606.00;10484467;28;20049;-66
2024/03/24 20:40:57;;;;;;;1999.90;999.90;;;;;;;5.42;100.00;100606.69;10458457;28;20057;-66
2024/03/24 20:45:58;;;;;;;1999.90;999.90;;;;;;;5.42;100.00;100623.09;10459479;28;20056;-66
2024/03/24 20:51:00;;;;;;;1999.90;999.90;;;;;;;5.40;100.00;100622.31;10458964;28;20048;-66
2024/03/24 20:56:03;;;;;;;1999.90;999.90;;;;;;;5.33;100.00;100626.03;10458113;28;20060;-66
2024/03/24 21:01:05;;;;;;;1999.90;999.90;;;;;;;5.23;100.00;100620.38;10458390;28;20068;-66
2024/03/24 21:06:06;;;;;;;1999.90;999.90;;;;;;;5.19;100.00;100619.63;10458637;28;20052;-66
2024/03/24 21:11:08;;;;;;;1999.90;999.90;;;;;;;5.04;100.00;100617.59;10457409;28;20490;-66
2024/03/24 21:16:09;;;;;;;1999.90;999.90;;;;;;;5.18;100.00;100623.13;10457918;28;20056;-66
2024/03/24 21:21:11;;;;;;;1999.90;999.90;;;;;;;5.02;100.00;100622.84;10455959;28;20567;-66
2024/03/24 21:26:12;;;;;;;1999.90;999.90;;;;;;;4.97;100.00;100635.13;10457107;28;20053;-66
2024/03/24 21:31:13;;;;;;;1999.90;999.90;;;;;;;4.90;100.00;100631.09;10457121;28;20508;-66
2024/03/24 21:36:15;;;;;;;1999.90;999.90;;;;;;;4.97;100.00;100627.34;10456842;28;20052;-66
2024/03/24 21:46:36;;;;;;;1999.90;999.90;;;;;;;4.94;100.00;100632.69;10456611;28;20061;-66
2024/03/24 21:51:38;;;;;;;1999.90;999.90;;;;;;;5.01;100.00;100633.31;10456241;28;20509;-66
2024/03/24 21:56:40;;;;;;;1999.90;999.90;;;;;;;5.08;100.00;100632.16;10455826;28;20466;-66
2024/03/24 22:01:41;;;;;;;1999.90;999.90;;;;;;;5.06;100.00;100635.72;10455309;28;20509;-66